LNG Lagos II — ZCEQ7 — position and weather

sailwx.info

Track history (hours):
 
Tides and Currents Weather Stations Pressure Air Temp Water Temp Dewpoint Dewpoint Depression Visibility Wind Speed Wind Dir Waves Ship Positions

LNG Lagos II

Last reported at 2018-Mar-28 04:27 UTC. Time now 2018-Apr-22 14:34 UTC.
Position N 07°42' W 018°50'.
Warning: this ship's position is 25 days out of date.

Length 299 m; draft 9.5 m.

Type: Ship (hazmat cat A). MMSI: 310721000.

Date/timePositionNaut miles runAvg speedWind from/ knotsBaromVisibWave heightAir tempDewpointWater temp
2018-Mar-28 04:27N 07°42' W 018°50'712.2
2018-Mar-28 03:54N 07°48' W 018°50'512.1
2018-Mar-28 03:30N 07°53' W 018°50'612.4
2018-Mar-28 02:59N 07°60' W 018°50'612.2
2018-Mar-28 02:30N 08°06' W 018°50'812.2
2018-Mar-28 01:51N 08°14' W 018°51'412.0
2018-Mar-28 01:30N 08°18' W 018°51'612.0
2018-Mar-28 01:00N 08°24' W 018°51'812.1
2018-Mar-28 00:22N 08°32' W 018°51'412.2
2018-Mar-28 00:00N 08°36' W 018°51'612.3
2018-Mar-27 23:30N 08°42' W 018°51'612.2
2018-Mar-27 23:00N 08°48' W 018°51'612.1
2018-Mar-27 22:30N 08°54' W 018°50'611.9
2018-Mar-27 22:00N 09°00' W 018°50'611.9
2018-Mar-27 21:30N 09°06' W 018°50'611.9
2018-Mar-27 21:00N 09°12' W 018°50'612.0
2018-Mar-27 20:30N 09°18' W 018°50'612.3
2018-Mar-27 20:00N 09°24' W 018°50'612.4
2018-Mar-27 19:30N 09°30' W 018°50'612.2
2018-Mar-27 19:00N 09°37' W 018°50'612.3
2018-Mar-27 18:30N 09°43' W 018°50'612.3
2018-Mar-27 18:00N 09°49' W 018°50'712.5
2018-Mar-27 17:28N 09°56' W 018°50'612.6
2018-Mar-27 17:00N 10°01' W 018°50'812.5
2018-Mar-27 16:24N 10°09' W 018°49'512.4
2018-Mar-27 16:00N 10°14' W 018°49'612.6
2018-Mar-27 15:30N 10°20' W 018°49'612.8
2018-Mar-27 15:00N 10°27' W 018°48'612.6
2018-Mar-27 14:30N 10°33' W 018°48'612.4
2018-Mar-27 14:00N 10°39' W 018°47'612.5
2018-Mar-27 13:30N 10°45' W 018°47'712.6
2018-Mar-27 12:59N 10°52' W 018°46'612.6
2018-Mar-27 12:30N 10°58' W 018°46'612.3
2018-Mar-27 12:00N 11°04' W 018°45'612.4
2018-Mar-27 11:30N 11°10' W 018°45'612.8
2018-Mar-27 11:00N 11°16' W 018°45'612.4
2018-Mar-27 10:30N 11°23' W 018°46'612.4
2018-Mar-27 10:00N 11°29' W 018°47'612.5
2018-Mar-27 09:29N 11°35' W 018°48'612.5
2018-Mar-27 09:00N 11°41' W 018°49'713.9
2018-Mar-27 08:30N 11°48' W 018°49'714.5
2018-Mar-27 08:00N 11°55' W 018°49'714.6
2018-Mar-27 07:31N 12°02' W 018°49'714.6
2018-Mar-27 07:01N 12°10' W 018°49'714.6
2018-Mar-27 06:30N 12°17' W 018°50'714.4
2018-Mar-27 06:00N 12°24' W 018°51'714.5
2018-Mar-27 05:31N 12°31' W 018°51'714.5
2018-Mar-27 05:01N 12°39' W 018°51'714.6
2018-Mar-27 04:31N 12°46' W 018°52'  
2018-Mar-24 11:28N 28°08' W 016°13'715.6
2018-Mar-24 11:00N 28°14' W 016°08'815.3
2018-Mar-24 10:30N 28°19' W 016°02'815.2
2018-Mar-24 10:01N 28°25' W 015°57'815.1
2018-Mar-24 09:30N 28°31' W 015°51'714.9
2018-Mar-24 09:00N 28°37' W 015°46'714.8
2018-Mar-24 08:30N 28°43' W 015°41'815.0
2018-Mar-24 08:00N 28°50' W 015°37'714.9
2018-Mar-24 07:30N 28°56' W 015°33'60715.3
2018-Mar-22 15:44N 37°37' W 009°18'314.7
2018-Mar-22 15:30N 37°38' W 009°15'714.8
2018-Mar-22 15:00N 37°42' W 009°07'714.7
2018-Mar-22 14:30N 37°46' W 008°59'713.4
2018-Mar-22 14:00N 37°52' W 008°55'5 9.1
2018-Mar-22 13:30N 37°56' W 008°53'1 2.0
2018-Mar-22 13:00N 37°56' W 008°51'0 0.0
2018-Mar-22 12:30N 37°56' W 008°51'0 0.0
2018-Mar-22 12:00N 37°56' W 008°51'0 0.0
2018-Mar-22 11:30N 37°56' W 008°51'0 0.0
2018-Mar-22 11:00N 37°56' W 008°51'0 0.0
2018-Mar-22 10:30N 37°56' W 008°51'0 0.0
2018-Mar-22 10:00N 37°56' W 008°51'0 0.0
2018-Mar-22 09:30N 37°56' W 008°51'0 0.0
2018-Mar-22 09:00N 37°56' W 008°51'0 0.0
2018-Mar-22 08:30N 37°56' W 008°51'0 0.0
2018-Mar-22 08:00N 37°56' W 008°51'0 0.0
2018-Mar-22 07:30N 37°56' W 008°51'0 0.0
2018-Mar-22 07:00N 37°56' W 008°51'0 0.0
2018-Mar-22 06:30N 37°56' W 008°51'0 0.0
2018-Mar-22 06:00N 37°56' W 008°51'0 0.0
2018-Mar-22 05:30N 37°56' W 008°51'0 0.0
2018-Mar-22 05:00N 37°56' W 008°51'0 0.0
2018-Mar-22 04:30N 37°56' W 008°51'0 0.0
2018-Mar-22 04:00N 37°56' W 008°51'0 0.0
2018-Mar-22 03:30N 37°56' W 008°51'0 0.0
2018-Mar-22 03:00N 37°56' W 008°51'0 0.0
2018-Mar-22 02:30N 37°56' W 008°51'0 0.0
2018-Mar-22 02:00N 37°56' W 008°51'0 0.0
2018-Mar-22 01:30N 37°56' W 008°51'0 0.0
2018-Mar-22 01:00N 37°56' W 008°51'0 0.0
2018-Mar-22 00:30N 37°56' W 008°51'0 0.0
2018-Mar-22 00:00N 37°56' W 008°51'0 0.0
2018-Mar-21 23:30N 37°56' W 008°51'0 0.0
2018-Mar-21 23:00N 37°56' W 008°51'0 0.0
2018-Mar-21 22:30N 37°56' W 008°51'0 0.0
2018-Mar-21 22:00N 37°56' W 008°51'0 0.0
2018-Mar-21 21:30N 37°56' W 008°51'0 0.0
2018-Mar-21 21:00N 37°56' W 008°51'0 0.0
2018-Mar-21 20:30N 37°56' W 008°51'0 0.0
2018-Mar-21 20:00N 37°56' W 008°51'0 0.0
2018-Mar-21 19:30N 37°56' W 008°51'0 0.0
2018-Mar-21 19:00N 37°56' W 008°51'0 0.0
2018-Mar-21 18:30N 37°56' W 008°51'0 0.0
2018-Mar-21 18:00N 37°56' W 008°51'0 0.0
2018-Mar-21 17:30N 37°56' W 008°51'0 0.0
2018-Mar-21 17:00N 37°56' W 008°51'0 0.0
2018-Mar-21 16:30N 37°56' W 008°51'0 0.0
2018-Mar-21 16:00N 37°56' W 008°51'0 0.0
2018-Mar-21 15:30N 37°56' W 008°51'0 0.0
2018-Mar-21 15:00N 37°56' W 008°51'0 0.0
2018-Mar-21 14:30N 37°56' W 008°51'0 0.0
2018-Mar-21 14:00N 37°56' W 008°51'0 0.0
2018-Mar-21 13:30N 37°56' W 008°51'0 0.0
2018-Mar-21 13:00N 37°56' W 008°51'0 0.0
2018-Mar-21 12:30N 37°56' W 008°51'0 0.0
2018-Mar-21 12:00N 37°56' W 008°51'0 0.0
2018-Mar-21 11:30N 37°56' W 008°51'0 0.0
2018-Mar-21 11:00N 37°56' W 008°51'0 0.0
2018-Mar-21 10:30N 37°56' W 008°51'0 0.0
2018-Mar-21 10:00N 37°56' W 008°51'0 0.0
2018-Mar-21 09:30N 37°56' W 008°51'0 0.5
2018-Mar-21 09:01N 37°56' W 008°52'1 1.3
2018-Mar-21 08:30N 37°56' W 008°52'2 3.3
2018-Mar-21 08:01N 37°55' W 008°53'3 5.1
2018-Mar-21 07:31N 37°52' W 008°54'2 4.5
2018-Mar-21 07:01N 37°50' W 008°55'611.5
2018-Mar-21 06:30N 37°45' W 008°58'917.2
2018-Mar-21 06:00N 37°40' W 009°07'917.2
2018-Mar-21 05:30N 37°34' W 009°15'60614.1
2018-Mar-19 10:25N 28°54' W 015°26'715.1
2018-Mar-19 09:59N 28°48' W 015°30'715.0
2018-Mar-19 09:29N 28°42' W 015°34'715.1
2018-Mar-19 09:00N 28°36' W 015°39'815.5
2018-Mar-19 08:30N 28°30' W 015°45'817.0
2018-Mar-19 08:00N 28°24' W 015°51'916.9
2018-Mar-19 07:30N 28°17' W 015°57'816.7
2018-Mar-19 07:00N 28°11' W 016°03'  
Track history (hours):
 
Tides and Currents Weather Stations Pressure Air Temp Water Temp Dewpoint Dewpoint Depression Visibility Wind Speed Wind Dir Waves Ship Positions

LNG Lagos II

Last reported at 2018-Mar-28 04:27 UTC. Time now 2018-Apr-22 14:34 UTC.
Position N 07°42' W 018°50'.
Warning: this ship's position is 25 days out of date.

Length 299 m; draft 9.5 m.

Type: Ship (hazmat cat A). MMSI: 310721000.

Date/timePositionNaut miles runAvg speedWind from/ knotsBaromVisibWave heightAir tempDewpointWater temp
2018-Mar-28 04:27N 07°42' W 018°50'712.2
2018-Mar-28 03:54N 07°48' W 018°50'512.1
2018-Mar-28 03:30N 07°53' W 018°50'612.4
2018-Mar-28 02:59N 07°60' W 018°50'612.2
2018-Mar-28 02:30N 08°06' W 018°50'812.2
2018-Mar-28 01:51N 08°14' W 018°51'412.0
2018-Mar-28 01:30N 08°18' W 018°51'612.0
2018-Mar-28 01:00N 08°24' W 018°51'812.1
2018-Mar-28 00:22N 08°32' W 018°51'412.2
2018-Mar-28 00:00N 08°36' W 018°51'612.3
2018-Mar-27 23:30N 08°42' W 018°51'612.2
2018-Mar-27 23:00N 08°48' W 018°51'612.1
2018-Mar-27 22:30N 08°54' W 018°50'611.9
2018-Mar-27 22:00N 09°00' W 018°50'611.9
2018-Mar-27 21:30N 09°06' W 018°50'611.9
2018-Mar-27 21:00N 09°12' W 018°50'612.0
2018-Mar-27 20:30N 09°18' W 018°50'612.3
2018-Mar-27 20:00N 09°24' W 018°50'612.4
2018-Mar-27 19:30N 09°30' W 018°50'612.2
2018-Mar-27 19:00N 09°37' W 018°50'612.3
2018-Mar-27 18:30N 09°43' W 018°50'612.3
2018-Mar-27 18:00N 09°49' W 018°50'712.5
2018-Mar-27 17:28N 09°56' W 018°50'612.6
2018-Mar-27 17:00N 10°01' W 018°50'812.5
2018-Mar-27 16:24N 10°09' W 018°49'512.4
2018-Mar-27 16:00N 10°14' W 018°49'612.6
2018-Mar-27 15:30N 10°20' W 018°49'612.8
2018-Mar-27 15:00N 10°27' W 018°48'612.6
2018-Mar-27 14:30N 10°33' W 018°48'612.4
2018-Mar-27 14:00N 10°39' W 018°47'612.5
2018-Mar-27 13:30N 10°45' W 018°47'712.6
2018-Mar-27 12:59N 10°52' W 018°46'612.6
2018-Mar-27 12:30N 10°58' W 018°46'612.3
2018-Mar-27 12:00N 11°04' W 018°45'612.4
2018-Mar-27 11:30N 11°10' W 018°45'612.8
2018-Mar-27 11:00N 11°16' W 018°45'612.4
2018-Mar-27 10:30N 11°23' W 018°46'612.4
2018-Mar-27 10:00N 11°29' W 018°47'612.5
2018-Mar-27 09:29N 11°35' W 018°48'612.5
2018-Mar-27 09:00N 11°41' W 018°49'713.9
2018-Mar-27 08:30N 11°48' W 018°49'714.5
2018-Mar-27 08:00N 11°55' W 018°49'714.6
2018-Mar-27 07:31N 12°02' W 018°49'714.6
2018-Mar-27 07:01N 12°10' W 018°49'714.6
2018-Mar-27 06:30N 12°17' W 018°50'714.4
2018-Mar-27 06:00N 12°24' W 018°51'714.5
2018-Mar-27 05:31N 12°31' W 018°51'714.5
2018-Mar-27 05:01N 12°39' W 018°51'714.6
2018-Mar-27 04:31N 12°46' W 018°52'  
2018-Mar-24 11:28N 28°08' W 016°13'715.6
2018-Mar-24 11:00N 28°14' W 016°08'815.3
2018-Mar-24 10:30N 28°19' W 016°02'815.2
2018-Mar-24 10:01N 28°25' W 015°57'815.1
2018-Mar-24 09:30N 28°31' W 015°51'714.9
2018-Mar-24 09:00N 28°37' W 015°46'714.8
2018-Mar-24 08:30N 28°43' W 015°41'815.0
2018-Mar-24 08:00N 28°50' W 015°37'714.9
2018-Mar-24 07:30N 28°56' W 015°33'60715.3
2018-Mar-22 15:44N 37°37' W 009°18'314.7
2018-Mar-22 15:30N 37°38' W 009°15'714.8
2018-Mar-22 15:00N 37°42' W 009°07'714.7
2018-Mar-22 14:30N 37°46' W 008°59'713.4
2018-Mar-22 14:00N 37°52' W 008°55'5 9.1
2018-Mar-22 13:30N 37°56' W 008°53'1 2.0
2018-Mar-22 13:00N 37°56' W 008°51'0 0.0
2018-Mar-22 12:30N 37°56' W 008°51'0 0.0
2018-Mar-22 12:00N 37°56' W 008°51'0 0.0
2018-Mar-22 11:30N 37°56' W 008°51'0 0.0
2018-Mar-22 11:00N 37°56' W 008°51'0 0.0
2018-Mar-22 10:30N 37°56' W 008°51'0 0.0
2018-Mar-22 10:00N 37°56' W 008°51'0 0.0
2018-Mar-22 09:30N 37°56' W 008°51'0 0.0
2018-Mar-22 09:00N 37°56' W 008°51'0 0.0
2018-Mar-22 08:30N 37°56' W 008°51'0 0.0
2018-Mar-22 08:00N 37°56' W 008°51'0 0.0
2018-Mar-22 07:30N 37°56' W 008°51'0 0.0
2018-Mar-22 07:00N 37°56' W 008°51'0 0.0
2018-Mar-22 06:30N 37°56' W 008°51'0 0.0
2018-Mar-22 06:00N 37°56' W 008°51'0 0.0
2018-Mar-22 05:30N 37°56' W 008°51'0 0.0
2018-Mar-22 05:00N 37°56' W 008°51'0 0.0
2018-Mar-22 04:30N 37°56' W 008°51'0 0.0
2018-Mar-22 04:00N 37°56' W 008°51'0 0.0
2018-Mar-22 03:30N 37°56' W 008°51'0 0.0
2018-Mar-22 03:00N 37°56' W 008°51'0 0.0
2018-Mar-22 02:30N 37°56' W 008°51'0 0.0
2018-Mar-22 02:00N 37°56' W 008°51'0 0.0
2018-Mar-22 01:30N 37°56' W 008°51'0 0.0
2018-Mar-22 01:00N 37°56' W 008°51'0 0.0
2018-Mar-22 00:30N 37°56' W 008°51'0 0.0
2018-Mar-22 00:00N 37°56' W 008°51'0 0.0
2018-Mar-21 23:30N 37°56' W 008°51'0 0.0
2018-Mar-21 23:00N 37°56' W 008°51'0 0.0
2018-Mar-21 22:30N 37°56' W 008°51'0 0.0
2018-Mar-21 22:00N 37°56' W 008°51'0 0.0
2018-Mar-21 21:30N 37°56' W 008°51'0 0.0
2018-Mar-21 21:00N 37°56' W 008°51'0 0.0
2018-Mar-21 20:30N 37°56' W 008°51'0 0.0
2018-Mar-21 20:00N 37°56' W 008°51'0 0.0
2018-Mar-21 19:30N 37°56' W 008°51'0 0.0
2018-Mar-21 19:00N 37°56' W 008°51'0 0.0
2018-Mar-21 18:30N 37°56' W 008°51'0 0.0
2018-Mar-21 18:00N 37°56' W 008°51'0 0.0
2018-Mar-21 17:30N 37°56' W 008°51'0 0.0
2018-Mar-21 17:00N 37°56' W 008°51'0 0.0
2018-Mar-21 16:30N 37°56' W 008°51'0 0.0
2018-Mar-21 16:00N 37°56' W 008°51'0 0.0
2018-Mar-21 15:30N 37°56' W 008°51'0 0.0
2018-Mar-21 15:00N 37°56' W 008°51'0 0.0
2018-Mar-21 14:30N 37°56' W 008°51'0 0.0
2018-Mar-21 14:00N 37°56' W 008°51'0 0.0
2018-Mar-21 13:30N 37°56' W 008°51'0 0.0
2018-Mar-21 13:00N 37°56' W 008°51'0 0.0
2018-Mar-21 12:30N 37°56' W 008°51'0 0.0
2018-Mar-21 12:00N 37°56' W 008°51'0 0.0
2018-Mar-21 11:30N 37°56' W 008°51'0 0.0
2018-Mar-21 11:00N 37°56' W 008°51'0 0.0
2018-Mar-21 10:30N 37°56' W 008°51'0 0.0
2018-Mar-21 10:00N 37°56' W 008°51'0 0.0
2018-Mar-21 09:30N 37°56' W 008°51'0 0.5
2018-Mar-21 09:01N 37°56' W 008°52'1 1.3
2018-Mar-21 08:30N 37°56' W 008°52'2 3.3
2018-Mar-21 08:01N 37°55' W 008°53'3 5.1
2018-Mar-21 07:31N 37°52' W 008°54'2 4.5
2018-Mar-21 07:01N 37°50' W 008°55'611.5
2018-Mar-21 06:30N 37°45' W 008°58'917.2
2018-Mar-21 06:00N 37°40' W 009°07'917.2
2018-Mar-21 05:30N 37°34' W 009°15'60614.1
2018-Mar-19 10:25N 28°54' W 015°26'715.1
2018-Mar-19 09:59N 28°48' W 015°30'715.0
2018-Mar-19 09:29N 28°42' W 015°34'715.1
2018-Mar-19 09:00N 28°36' W 015°39'815.5
2018-Mar-19 08:30N 28°30' W 015°45'817.0
2018-Mar-19 08:00N 28°24' W 015°51'916.9
2018-Mar-19 07:30N 28°17' W 015°57'816.7
2018-Mar-19 07:00N 28°11' W 016°03'  

Dump ship's entire track history